Weather at Campo di Volo "Al Canale"

Public forecast

Using degrees Celsius for public forecast. Weather courtesy of forecast.io.

Closest aviation weather report (METAR) to Campo di Volo "Al Canale"

Closest report is Gioia Del Colle Air Base, 13.9 nm (25.7 km) W.

2024/05/21 13:55 (retrieved 41 minutes ago)

LIBV 211355Z 28013KT 9999 FEW030 FEW035TCU 28/13 Q1009

Closest aviation forecast (TAF) to Campo di Volo "Al Canale"

Closest forecast is Bari Karol Wojtyła Airport, 29.0 nm (53.8 km) NW.

2024/05/21 12:00 (retrieved 3 hours ago)

TAF LIBD 211100Z 2112/2212 27016KT CAVOK BECMG 2207/2209 34014KT TAF LIBP 211100Z 2112/2212 06012KT 9999 SCT020 TEMPO 2112/2118 TSRA BECMG 2118/2120 21012KT TEMPO 2121/2205 21015G25KT BECMG 2210/2212 06012KT